DLH442 EDDF-KLAX
Flight info
| Callsign | DLH442 |
|---|---|
| Flight time | N/A |
| Altitude | 34000 |
| Route | OBOKA3D/07C OBOKA Z29 TORNU DCT RAVLO Y70 OTBED L60 PENIL M144 BAGSO DCT RESNO/M086F360 NATE NEEKO/N0500F360 DCT EXPOS/N0498F380 DCT YSP DCT DLH DCT CHE/N0487F400 DCT EKR DCT PROMT Q88 HAKMN ANJLL4 |
| Aircraft | B748/H-SDE3FGHIM1M2RWXY/LB1 |
Departure
| Time | N/A |
|---|---|
| Airport | Frankfurt Main Airport (EDDF) |
Arrival
| Time | 2026-04-21 17:31 |
|---|---|
| Airport | Los Angeles International Airport (KLAX) |
| Time | Latitude | Longitude | Altitude | Speed | Heading |
|---|---|---|---|---|---|
| 2026-04-21 16:27 | 37.64834 | -111.65754 | 39999 ft | 473 kts | 227° |
| 2026-04-21 16:27 | 37.60532 | -111.72021 | 40003 ft | 473 kts | 228° |
| 2026-04-21 16:28 | 37.56223 | -111.78280 | 40034 ft | 473 kts | 227° |
| 2026-04-21 16:28 | 37.51906 | -111.84534 | 40049 ft | 473 kts | 227° |
| 2026-04-21 16:29 | 37.48487 | -111.89908 | 40046 ft | 474 kts | 232° |
| 2026-04-21 16:29 | 37.43971 | -111.97671 | 40052 ft | 472 kts | 232° |
| 2026-04-21 16:30 | 37.40068 | -112.04308 | 40038 ft | 472 kts | 232° |
| 2026-04-21 16:30 | 37.36149 | -112.11001 | 40020 ft | 472 kts | 232° |
| 2026-04-21 16:31 | 37.32962 | -112.16443 | 40004 ft | 471 kts | 232° |
| 2026-04-21 16:31 | 37.29072 | -112.23067 | 40014 ft | 471 kts | 232° |
| 2026-04-21 16:32 | 37.25183 | -112.29679 | 40014 ft | 470 kts | 232° |
| 2026-04-21 16:32 | 37.21293 | -112.36278 | 40009 ft | 470 kts | 232° |
| 2026-04-21 16:33 | 37.17397 | -112.42875 | 40012 ft | 471 kts | 232° |
| 2026-04-21 16:33 | 37.13497 | -112.49465 | 40009 ft | 473 kts | 232° |
| 2026-04-21 16:34 | 37.09589 | -112.56057 | 40012 ft | 474 kts | 232° |
| 2026-04-21 16:34 | 37.05681 | -112.62635 | 40025 ft | 474 kts | 232° |
| 2026-04-21 16:35 | 37.01744 | -112.69256 | 40054 ft | 474 kts | 232° |
| 2026-04-21 16:35 | 36.97803 | -112.75873 | 40091 ft | 474 kts | 232° |
| 2026-04-21 16:36 | 36.93846 | -112.82503 | 40125 ft | 476 kts | 232° |
| 2026-04-21 16:36 | 36.89893 | -112.89114 | 40142 ft | 476 kts | 232° |
| 2026-04-21 16:37 | 36.85931 | -112.95726 | 40134 ft | 474 kts | 232° |
| 2026-04-21 16:37 | 36.81977 | -113.02313 | 40114 ft | 475 kts | 232° |
| 2026-04-21 16:38 | 36.78019 | -113.08892 | 40098 ft | 476 kts | 232° |
| 2026-04-21 16:38 | 36.74026 | -113.15519 | 40044 ft | 476 kts | 232° |
| 2026-04-21 16:39 | 36.70046 | -113.22110 | 40005 ft | 476 kts | 232° |
| 2026-04-21 16:39 | 36.66068 | -113.28684 | 39962 ft | 475 kts | 232° |
| 2026-04-21 16:40 | 36.62108 | -113.35273 | 39966 ft | 476 kts | 233° |
| 2026-04-21 16:40 | 36.58297 | -113.42006 | 39957 ft | 476 kts | 233° |
| 2026-04-21 16:41 | 36.54510 | -113.48657 | 39965 ft | 475 kts | 234° |
| 2026-04-21 16:41 | 36.50704 | -113.55362 | 39951 ft | 474 kts | 233° |
| 2026-04-21 16:42 | 36.46886 | -113.62048 | 39955 ft | 475 kts | 233° |
| 2026-04-21 16:42 | 36.43064 | -113.68748 | 39934 ft | 475 kts | 233° |
| 2026-04-21 16:43 | 36.39229 | -113.75442 | 39921 ft | 476 kts | 234° |
| 2026-04-21 16:43 | 36.35408 | -113.82111 | 39921 ft | 473 kts | 234° |
| 2026-04-21 16:44 | 36.31582 | -113.88766 | 39903 ft | 473 kts | 234° |
| 2026-04-21 16:44 | 36.27763 | -113.95403 | 39897 ft | 468 kts | 234° |
| 2026-04-21 16:44 | 36.25923 | -113.98596 | 39887 ft | 454 kts | 234° |
| 2026-04-21 16:45 | 36.24114 | -114.01729 | 39870 ft | 441 kts | 233° |
| 2026-04-21 16:45 | 36.22360 | -114.04766 | 39868 ft | 428 kts | 233° |
| 2026-04-21 16:45 | 36.20654 | -114.07718 | 39872 ft | 416 kts | 233° |
| 2026-04-21 16:45 | 36.18996 | -114.10584 | 39865 ft | 404 kts | 233° |
| 2026-04-21 16:46 | 36.17378 | -114.13377 | 39855 ft | 395 kts | 233° |
| 2026-04-21 16:46 | 36.14155 | -114.18935 | 39865 ft | 401 kts | 233° |
| 2026-04-21 16:47 | 36.10900 | -114.24542 | 39871 ft | 402 kts | 233° |
| 2026-04-21 16:47 | 36.07577 | -114.29942 | 39894 ft | 385 kts | 229° |
| 2026-04-21 16:48 | 36.03983 | -114.34917 | 39868 ft | 390 kts | 229° |
| 2026-04-21 16:48 | 36.00379 | -114.39923 | 39868 ft | 390 kts | 229° |
| 2026-04-21 16:49 | 35.96765 | -114.44916 | 39882 ft | 389 kts | 230° |
| 2026-04-21 16:49 | 35.93167 | -114.49892 | 39898 ft | 389 kts | 229° |
| 2026-04-21 16:50 | 35.89561 | -114.54863 | 39912 ft | 389 kts | 229° |
| 2026-04-21 16:50 | 35.85948 | -114.59843 | 39922 ft | 390 kts | 229° |
| 2026-04-21 16:51 | 35.82329 | -114.64819 | 39917 ft | 389 kts | 230° |
| 2026-04-21 16:51 | 35.78716 | -114.69784 | 39921 ft | 389 kts | 229° |
| 2026-04-21 16:52 | 35.75102 | -114.74739 | 39919 ft | 389 kts | 229° |
| 2026-04-21 16:52 | 35.71490 | -114.79686 | 39957 ft | 389 kts | 229° |
| 2026-04-21 16:53 | 35.67875 | -114.84630 | 39957 ft | 388 kts | 229° |
| 2026-04-21 16:53 | 35.64266 | -114.89564 | 39958 ft | 389 kts | 230° |
| 2026-04-21 16:54 | 35.60654 | -114.94512 | 39960 ft | 389 kts | 229° |
| 2026-04-21 16:54 | 35.57033 | -114.99455 | 39962 ft | 389 kts | 229° |
| 2026-04-21 16:55 | 35.53407 | -115.04401 | 39984 ft | 390 kts | 230° |
| 2026-04-21 16:55 | 35.49756 | -115.09310 | 39984 ft | 388 kts | 229° |
| 2026-04-21 16:56 | 35.46088 | -115.14119 | 39981 ft | 388 kts | 229° |
| 2026-04-21 16:56 | 35.42382 | -115.18964 | 39994 ft | 391 kts | 230° |
| 2026-04-21 16:57 | 35.38653 | -115.23821 | 39993 ft | 391 kts | 230° |
| 2026-04-21 16:57 | 35.34930 | -115.28676 | 39972 ft | 391 kts | 230° |
| 2026-04-21 16:57 | 35.33045 | -115.31126 | 39535 ft | 396 kts | 230° |
| 2026-04-21 16:58 | 35.31171 | -115.33560 | 39291 ft | 390 kts | 230° |
| 2026-04-21 16:58 | 35.29321 | -115.35963 | 39051 ft | 384 kts | 230° |
| 2026-04-21 16:58 | 35.27501 | -115.38326 | 38809 ft | 380 kts | 230° |
| 2026-04-21 16:58 | 35.25682 | -115.40690 | 38591 ft | 384 kts | 230° |
| 2026-04-21 16:59 | 35.23843 | -115.43076 | 38331 ft | 385 kts | 230° |
| 2026-04-21 16:59 | 35.22003 | -115.45458 | 38061 ft | 386 kts | 230° |
| 2026-04-21 16:59 | 35.20161 | -115.47841 | 37808 ft | 386 kts | 230° |
| 2026-04-21 16:59 | 35.18309 | -115.50238 | 37549 ft | 387 kts | 230° |
| 2026-04-21 17:00 | 35.16459 | -115.52630 | 37303 ft | 388 kts | 230° |
| 2026-04-21 17:00 | 35.14627 | -115.54996 | 37062 ft | 388 kts | 230° |
| 2026-04-21 17:00 | 35.13371 | -115.56617 | 36881 ft | 389 kts | 230° |
| 2026-04-21 17:00 | 35.10879 | -115.59829 | 36547 ft | 391 kts | 229° |
| 2026-04-21 17:01 | 35.09018 | -115.62206 | 36310 ft | 391 kts | 229° |
| 2026-04-21 17:01 | 35.07137 | -115.64604 | 36103 ft | 392 kts | 229° |
| 2026-04-21 17:01 | 35.05266 | -115.66997 | 35862 ft | 386 kts | 229° |
| 2026-04-21 17:01 | 35.03420 | -115.69359 | 35632 ft | 384 kts | 229° |
| 2026-04-21 17:02 | 35.01572 | -115.71720 | 35394 ft | 386 kts | 229° |
| 2026-04-21 17:02 | 34.99713 | -115.74090 | 35165 ft | 386 kts | 229° |
| 2026-04-21 17:02 | 34.97857 | -115.76455 | 34935 ft | 386 kts | 229° |
| 2026-04-21 17:02 | 34.95999 | -115.78822 | 34706 ft | 387 kts | 229° |
| 2026-04-21 17:03 | 34.94137 | -115.81193 | 34483 ft | 387 kts | 229° |
| 2026-04-21 17:03 | 34.92280 | -115.83556 | 34256 ft | 387 kts | 229° |
| 2026-04-21 17:03 | 34.90412 | -115.85930 | 34031 ft | 387 kts | 229° |
| 2026-04-21 17:03 | 34.88548 | -115.88299 | 33771 ft | 388 kts | 228° |
| 2026-04-21 17:04 | 34.86680 | -115.90671 | 33517 ft | 389 kts | 228° |
| 2026-04-21 17:04 | 34.84805 | -115.93049 | 33269 ft | 390 kts | 228° |
| 2026-04-21 17:04 | 34.82920 | -115.95439 | 33038 ft | 391 kts | 228° |
| 2026-04-21 17:04 | 34.81049 | -115.97808 | 32793 ft | 386 kts | 228° |
| 2026-04-21 17:05 | 34.79188 | -116.00163 | 32532 ft | 386 kts | 228° |
| 2026-04-21 17:05 | 34.77323 | -116.02527 | 32275 ft | 389 kts | 228° |
| 2026-04-21 17:05 | 34.75449 | -116.04907 | 32023 ft | 390 kts | 228° |
| 2026-04-21 17:05 | 34.73576 | -116.07303 | 31805 ft | 392 kts | 228° |
| 2026-04-21 17:06 | 34.71691 | -116.09711 | 31558 ft | 393 kts | 227° |
| 2026-04-21 17:06 | 34.69802 | -116.12111 | 31317 ft | 395 kts | 227° |
| 2026-04-21 17:06 | 34.67901 | -116.14526 | 31084 ft | 396 kts | 227° |
| 2026-04-21 17:06 | 34.65999 | -116.16946 | 30852 ft | 397 kts | 227° |
| 2026-04-21 17:07 | 34.64736 | -116.18553 | 30694 ft | 398 kts | 227° |
| 2026-04-21 17:07 | 34.62167 | -116.21814 | 30398 ft | 400 kts | 226° |
| 2026-04-21 17:07 | 34.60237 | -116.24260 | 30162 ft | 401 kts | 226° |
| 2026-04-21 17:07 | 34.58305 | -116.26709 | 29926 ft | 402 kts | 226° |
| 2026-04-21 17:08 | 34.56376 | -116.29153 | 29654 ft | 399 kts | 226° |
| 2026-04-21 17:08 | 34.54469 | -116.31566 | 29394 ft | 403 kts | 226° |
| 2026-04-21 17:08 | 34.52510 | -116.34043 | 29135 ft | 402 kts | 226° |
| 2026-04-21 17:08 | 34.50569 | -116.36497 | 28872 ft | 404 kts | 226° |
| 2026-04-21 17:09 | 34.46671 | -116.41418 | 28344 ft | 408 kts | 226° |
| 2026-04-21 17:09 | 34.44698 | -116.43907 | 28128 ft | 409 kts | 226° |
| 2026-04-21 17:09 | 34.42726 | -116.46393 | 27908 ft | 409 kts | 227° |
| 2026-04-21 17:10 | 34.41006 | -116.49136 | 27740 ft | 411 kts | 238° |
| 2026-04-21 17:10 | 34.39683 | -116.52208 | 27553 ft | 413 kts | 243° |
| 2026-04-21 17:10 | 34.38521 | -116.55395 | 27356 ft | 414 kts | 244° |
| 2026-04-21 17:10 | 34.37325 | -116.58495 | 27174 ft | 410 kts | 242° |
| 2026-04-21 17:11 | 34.36001 | -116.61548 | 26981 ft | 410 kts | 240° |
| 2026-04-21 17:11 | 34.34685 | -116.64601 | 26994 ft | 409 kts | 242° |
| 2026-04-21 17:11 | 34.33434 | -116.67699 | 26997 ft | 410 kts | 242° |
| 2026-04-21 17:11 | 34.32196 | -116.70820 | 26991 ft | 411 kts | 243° |
| 2026-04-21 17:12 | 34.30949 | -116.73943 | 26981 ft | 413 kts | 242° |
| 2026-04-21 17:12 | 34.29694 | -116.77046 | 26946 ft | 410 kts | 242° |
| 2026-04-21 17:12 | 34.28437 | -116.80152 | 26549 ft | 412 kts | 242° |
| 2026-04-21 17:12 | 34.27188 | -116.83260 | 25987 ft | 408 kts | 242° |
| 2026-04-21 17:13 | 34.25958 | -116.86319 | 25467 ft | 404 kts | 242° |
| 2026-04-21 17:13 | 34.24730 | -116.89360 | 24964 ft | 399 kts | 242° |
| 2026-04-21 17:13 | 34.23519 | -116.92347 | 24430 ft | 395 kts | 241° |
| 2026-04-21 17:13 | 34.22319 | -116.95316 | 23908 ft | 392 kts | 241° |
| 2026-04-21 17:14 | 34.21133 | -116.98287 | 23350 ft | 391 kts | 244° |
| 2026-04-21 17:14 | 34.20250 | -117.01391 | 22779 ft | 391 kts | 249° |
| 2026-04-21 17:14 | 34.19447 | -117.04512 | 22180 ft | 387 kts | 249° |
| 2026-04-21 17:14 | 34.18619 | -117.07596 | 21579 ft | 384 kts | 248° |
| 2026-04-21 17:15 | 34.17777 | -117.10635 | 21031 ft | 380 kts | 248° |
| 2026-04-21 17:15 | 34.16954 | -117.13650 | 20478 ft | 378 kts | 248° |
| 2026-04-21 17:15 | 34.16147 | -117.16657 | 19929 ft | 374 kts | 248° |
| 2026-04-21 17:15 | 34.15332 | -117.19633 | 19481 ft | 372 kts | 248° |
| 2026-04-21 17:16 | 34.14513 | -117.22581 | 18953 ft | 369 kts | 248° |
| 2026-04-21 17:16 | 34.13705 | -117.25507 | 18426 ft | 366 kts | 248° |
| 2026-04-21 17:16 | 34.12911 | -117.28405 | 17768 ft | 357 kts | 248° |
| 2026-04-21 17:16 | 34.12154 | -117.31168 | 17076 ft | 338 kts | 247° |
| 2026-04-21 17:17 | 34.11426 | -117.33804 | 16392 ft | 324 kts | 247° |
| 2026-04-21 17:17 | 34.10726 | -117.36326 | 15741 ft | 311 kts | 246° |
| 2026-04-21 17:17 | 34.10096 | -117.38787 | 15091 ft | 302 kts | 248° |
| 2026-04-21 17:17 | 34.09703 | -117.40378 | 14682 ft | 296 kts | 248° |
| 2026-04-21 17:18 | 34.09110 | -117.42725 | 14064 ft | 289 kts | 247° |
| 2026-04-21 17:18 | 34.08530 | -117.45017 | 13410 ft | 283 kts | 247° |
| 2026-04-21 17:18 | 34.07975 | -117.47241 | 12976 ft | 271 kts | 247° |
| 2026-04-21 17:18 | 34.07441 | -117.49376 | 12604 ft | 266 kts | 248° |
| 2026-04-21 17:19 | 34.06898 | -117.51505 | 12301 ft | 269 kts | 248° |
| 2026-04-21 17:19 | 34.06337 | -117.53694 | 11959 ft | 270 kts | 248° |
| 2026-04-21 17:19 | 34.05783 | -117.55860 | 11624 ft | 271 kts | 248° |
| 2026-04-21 17:19 | 34.05228 | -117.58034 | 11292 ft | 272 kts | 248° |
| 2026-04-21 17:20 | 34.04671 | -117.60215 | 10955 ft | 272 kts | 248° |
| 2026-04-21 17:20 | 34.04111 | -117.62403 | 10627 ft | 273 kts | 248° |
| 2026-04-21 17:20 | 34.03550 | -117.64593 | 10310 ft | 274 kts | 249° |
| 2026-04-21 17:20 | 34.02990 | -117.66777 | 10123 ft | 270 kts | 249° |
| 2026-04-21 17:21 | 34.02451 | -117.68890 | 10136 ft | 258 kts | 248° |
| 2026-04-21 17:21 | 34.02075 | -117.71035 | 10143 ft | 265 kts | 259° |
| 2026-04-21 17:21 | 34.01880 | -117.73253 | 9873 ft | 267 kts | 258° |
| 2026-04-21 17:21 | 34.01660 | -117.75471 | 9526 ft | 266 kts | 258° |
| 2026-04-21 17:22 | 34.01441 | -117.77680 | 9188 ft | 264 kts | 259° |
| 2026-04-21 17:22 | 34.01228 | -117.79875 | 8846 ft | 263 kts | 259° |
| 2026-04-21 17:22 | 34.01016 | -117.82065 | 8506 ft | 263 kts | 259° |
| 2026-04-21 17:22 | 34.00802 | -117.84258 | 8180 ft | 262 kts | 260° |
| 2026-04-21 17:23 | 34.00588 | -117.86442 | 7857 ft | 264 kts | 260° |
| 2026-04-21 17:23 | 34.00371 | -117.88653 | 7536 ft | 266 kts | 261° |
| 2026-04-21 17:23 | 34.00153 | -117.90877 | 7221 ft | 268 kts | 261° |
| 2026-04-21 17:23 | 33.99933 | -117.93109 | 6915 ft | 269 kts | 261° |
| 2026-04-21 17:24 | 33.99716 | -117.95331 | 6614 ft | 270 kts | 262° |
| 2026-04-21 17:24 | 33.99496 | -117.97589 | 6318 ft | 263 kts | 262° |
| 2026-04-21 17:24 | 33.99291 | -117.99688 | 6006 ft | 242 kts | 262° |
| 2026-04-21 17:24 | 33.99092 | -118.01675 | 5698 ft | 237 kts | 261° |
| 2026-04-21 17:25 | 33.98899 | -118.03610 | 5357 ft | 234 kts | 262° |
| 2026-04-21 17:25 | 33.98707 | -118.05526 | 5022 ft | 225 kts | 262° |
| 2026-04-21 17:25 | 33.98523 | -118.07380 | 4737 ft | 220 kts | 262° |
| 2026-04-21 17:25 | 33.98344 | -118.09179 | 4413 ft | 217 kts | 262° |
| 2026-04-21 17:26 | 33.98163 | -118.10986 | 4143 ft | 215 kts | 261° |
| 2026-04-21 17:26 | 33.97988 | -118.12736 | 3870 ft | 210 kts | 262° |
| 2026-04-21 17:26 | 33.97814 | -118.14488 | 3589 ft | 210 kts | 261° |
| 2026-04-21 17:26 | 33.97640 | -118.16207 | 3311 ft | 208 kts | 262° |
| 2026-04-21 17:27 | 33.97487 | -118.17931 | 3078 ft | 205 kts | 262° |
| 2026-04-21 17:27 | 33.97323 | -118.19660 | 2889 ft | 207 kts | 260° |
| 2026-04-21 17:27 | 33.97147 | -118.21383 | 2686 ft | 207 kts | 261° |
| 2026-04-21 17:27 | 33.97074 | -118.22079 | 2598 ft | 205 kts | 261° |
| 2026-04-21 17:28 | 33.96996 | -118.22869 | 2490 ft | 206 kts | 261° |
| 2026-04-21 17:28 | 33.96834 | -118.24498 | 2297 ft | 185 kts | 260° |
| 2026-04-21 17:28 | 33.96666 | -118.26040 | 2290 ft | 185 kts | 261° |
| 2026-04-21 17:28 | 33.96506 | -118.27596 | 2176 ft | 189 kts | 260° |
| 2026-04-21 17:29 | 33.96352 | -118.29093 | 1904 ft | 174 kts | 261° |
| 2026-04-21 17:29 | 33.96203 | -118.30545 | 1692 ft | 173 kts | 261° |
| 2026-04-21 17:29 | 33.96064 | -118.31916 | 1448 ft | 158 kts | 261° |
| 2026-04-21 17:29 | 33.95934 | -118.33194 | 1217 ft | 153 kts | 260° |
| 2026-04-21 17:30 | 33.95804 | -118.34469 | 1044 ft | 156 kts | 261° |
| 2026-04-21 17:30 | 33.95665 | -118.35750 | 827 ft | 155 kts | 260° |
| 2026-04-21 17:30 | 33.95534 | -118.37036 | 618 ft | 154 kts | 261° |
| 2026-04-21 17:30 | 33.95407 | -118.38291 | 409 ft | 151 kts | 263° |
| 2026-04-21 17:31 | 33.95290 | -118.39535 | 198 ft | 147 kts | 258° |
| 2026-04-21 17:31 | 33.95156 | -118.40677 | 102 ft | 113 kts | 265° |
| 2026-04-21 17:31 | 33.95088 | -118.41398 | 105 ft | 77 kts | 263° |
| 2026-04-21 17:31 | 33.95029 | -118.41970 | 103 ft | 49 kts | 260° |
| 2026-04-21 17:32 | 33.94882 | -118.42254 | 106 ft | 24 kts | 212° |
| 2026-04-21 17:32 | 33.94732 | -118.42276 | 106 ft | 20 kts | 167° |
| 2026-04-21 17:32 | 33.94685 | -118.42222 | 105 ft | 3 kts | 96° |
| 2026-04-21 17:32 | 33.94687 | -118.42193 | 106 ft | 4 kts | 85° |
| 2026-04-21 17:33 | 33.94691 | -118.42151 | 106 ft | 6 kts | 84° |
| 2026-04-21 17:33 | 33.94696 | -118.42094 | 103 ft | 8 kts | 83° |
| 2026-04-21 17:33 | 33.94705 | -118.42014 | 104 ft | 11 kts | 83° |
| 2026-04-21 17:33 | 33.94715 | -118.41914 | 104 ft | 13 kts | 83° |
| 2026-04-21 17:34 | 33.94727 | -118.41794 | 105 ft | 16 kts | 83° |
| 2026-04-21 17:34 | 33.94740 | -118.41655 | 103 ft | 18 kts | 83° |
| 2026-04-21 17:34 | 33.94757 | -118.41502 | 105 ft | 19 kts | 83° |
| 2026-04-21 17:34 | 33.94778 | -118.41389 | 105 ft | 13 kts | 71° |
| 2026-04-21 17:35 | 33.94765 | -118.41311 | 105 ft | 8 kts | 140° |
| 2026-04-21 17:35 | 33.94708 | -118.41286 | 104 ft | 10 kts | 167° |
| 2026-04-21 17:35 | 33.94636 | -118.41276 | 104 ft | 12 kts | 174° |
| 2026-04-21 17:35 | 33.94548 | -118.41263 | 104 ft | 14 kts | 172° |
| 2026-04-21 17:36 | 33.94444 | -118.41246 | 105 ft | 16 kts | 172° |
| 2026-04-21 17:36 | 33.94325 | -118.41229 | 103 ft | 18 kts | 173° |
| 2026-04-21 17:36 | 33.94210 | -118.41212 | 105 ft | 13 kts | 173° |
| 2026-04-21 17:36 | 33.94170 | -118.41179 | 105 ft | 4 kts | 103° |
| 2026-04-21 17:37 | 33.94172 | -118.41145 | 105 ft | 4 kts | 84° |
| 2026-04-21 17:37 | 33.94175 | -118.41113 | 103 ft | 4 kts | 83° |
| 2026-04-21 17:37 | 33.94177 | -118.41098 | 103 ft | 0 kts | 83° |
| 2026-04-21 17:37 | 33.94177 | -118.41095 | 103 ft | 1 kts | 83° |